Terminal Aerodrome Forecast
Issued by NWS Portland, ME

Current Version | Previous Version | Text Only | Print | Product List | Glossary On
Versions: 1 2 3 4 5 6 7 8 9 10 11 12 13 14 15 16
060
FTUS41 KGYX 200920 AAB
TAFPWM
TAF AMD
KPWM 200920Z 2009/2106 31008KT P6SM SCT050 BKN100
      TEMPO 2009/2011 6SM -SHRASN
     FM201300 32011G20KT P6SM BKN050
     FM210000 32008KT P6SM SCT050 BKN100=

USA.gov is the U.S. government's official web portal to all federal, state and local government web resources and services.